Time,TemperatureF,DewpointF,PressureIn,WindDirection,WindDirectionDegrees,WindSpeedMPH,WindSpeedGustMPH,Humidity,HourlyPrecipIn,Conditions,Clouds,dailyrainin,SoftwareType,DateUTC
2013-03-07 00:01:00,43.0,37.0,29.88,South,172,0.0,0.0,78,0.00,,,0.42,,2013-03-07 08:01:00,
2013-03-07 00:11:00,43.0,37.0,29.88,South,172,0.0,0.0,78,0.00,,,0.42,,2013-03-07 08:11:00,
2013-03-07 00:22:00,43.0,37.0,29.88,South,172,0.0,0.0,78,0.00,,,0.42,,2013-03-07 08:22:00,
2013-03-07 00:32:00,43.0,37.0,29.88,South,172,0.0,0.0,78,0.00,,,0.42,,2013-03-07 08:32:00,
2013-03-07 00:43:00,43.0,37.0,29.88,South,172,0.0,0.0,78,0.00,,,0.42,,2013-03-07 08:43:00,
2013-03-07 00:54:00,42.0,36.0,29.90,South,181,0.0,0.0,78,0.00,,,0.40,,2013-03-07 08:54:00,
2013-03-07 01:02:00,41.0,36.0,29.90,South,181,0.0,0.0,82,0.00,,,0.39,,2013-03-07 09:02:00,
2013-03-07 01:12:00,41.0,36.0,29.90,South,181,0.0,0.0,82,0.00,,,0.39,,2013-03-07 09:12:00,
2013-03-07 01:22:00,41.0,36.0,29.90,South,181,0.0,0.0,82,0.00,,,0.39,,2013-03-07 09:22:00,
2013-03-07 01:32:00,39.0,35.0,29.90,South,181,0.0,0.0,86,0.00,,,0.39,,2013-03-07 09:32:00,
2013-03-07 01:42:00,39.0,35.0,29.90,South,181,0.0,0.0,86,0.00,,,0.39,,2013-03-07 09:42:00,
2013-03-07 01:52:00,39.0,35.0,29.91,South,181,0.0,0.0,86,0.00,,,0.39,,2013-03-07 09:52:00,
2013-03-07 02:02:00,39.0,35.0,29.91,South,181,0.0,0.0,86,0.00,,,0.39,,2013-03-07 10:02:00,
2013-03-07 02:11:00,39.0,35.0,29.91,South,181,0.0,0.0,86,0.00,,,0.39,,2013-03-07 10:11:00,
2013-03-07 02:22:00,39.0,36.0,29.91,South,181,0.0,0.0,88,0.00,,,0.38,,2013-03-07 10:22:00,
2013-03-07 02:32:00,38.0,35.0,29.91,South,181,0.0,0.0,89,0.00,,,0.37,,2013-03-07 10:32:00,
2013-03-07 02:42:00,38.0,35.0,29.91,South,181,0.0,0.0,89,0.00,,,0.37,,2013-03-07 10:42:00,
2013-03-07 02:52:00,38.0,35.0,29.91,South,181,0.0,0.0,89,0.00,,,0.36,,2013-03-07 10:52:00,
2013-03-07 03:02:00,37.0,34.0,29.91,South,181,0.0,0.0,90,0.00,,,0.36,,2013-03-07 11:02:00,
2013-03-07 03:11:00,37.0,34.0,29.91,South,181,0.0,0.0,90,0.00,,,0.36,,2013-03-07 11:11:00,
2013-03-07 03:22:00,38.0,35.0,29.90,South,181,0.0,0.0,90,0.00,,,0.35,,2013-03-07 11:22:00,
2013-03-07 03:32:00,37.0,34.0,29.91,South,181,0.0,0.0,90,0.00,,,0.34,,2013-03-07 11:32:00,
2013-03-07 03:42:00,37.0,34.0,29.91,South,181,0.0,0.0,90,0.00,,,0.34,,2013-03-07 11:42:00,
2013-03-07 03:52:00,37.0,34.0,29.91,South,181,0.0,0.0,90,0.00,,,0.33,,2013-03-07 11:52:00,
2013-03-07 04:02:00,36.0,33.0,29.91,South,181,0.0,0.0,90,0.00,,,0.33,,2013-03-07 12:02:00,
2013-03-07 04:11:00,36.0,33.0,29.91,South,181,0.0,0.0,90,0.00,,,0.33,,2013-03-07 12:11:00,
2013-03-07 04:22:00,36.0,34.0,29.92,South,181,0.0,0.0,91,0.00,,,0.32,,2013-03-07 12:22:00,
2013-03-07 04:32:00,37.0,35.0,29.92,South,181,0.0,0.0,91,0.00,,,0.31,,2013-03-07 12:32:00,
2013-03-07 04:42:00,37.0,35.0,29.92,South,181,0.0,0.0,91,0.00,,,0.31,,2013-03-07 12:42:00,
2013-03-07 04:52:00,37.0,35.0,29.92,South,181,0.0,0.0,91,0.00,,,0.31,,2013-03-07 12:52:00,
2013-03-07 05:02:00,38.0,36.0,29.93,ESE,107,0.0,0.0,91,0.00,,,0.30,,2013-03-07 13:02:00,
2013-03-07 05:11:00,38.0,36.0,29.93,ESE,107,0.0,0.0,91,0.00,,,0.30,,2013-03-07 13:11:00,
2013-03-07 05:22:00,38.0,36.0,29.93,ESE,107,0.0,0.0,91,0.00,,,0.30,,2013-03-07 13:22:00,
2013-03-07 05:32:00,38.0,36.0,29.93,ESE,121,0.0,0.0,91,0.00,,,0.28,,2013-03-07 13:32:00,
2013-03-07 05:41:00,38.0,36.0,29.93,ESE,121,0.0,0.0,91,0.00,,,0.28,,2013-03-07 13:41:00,
2013-03-07 05:53:00,38.0,36.0,29.95,ESE,113,0.0,0.0,91,0.00,,,0.28,,2013-03-07 13:53:00,
2013-03-07 06:01:00,38.0,36.0,29.94,ESE,107,0.0,0.0,91,0.00,,,0.27,,2013-03-07 14:01:00,
2013-03-07 06:11:00,38.0,36.0,29.94,ESE,107,0.0,0.0,91,0.00,,,0.27,,2013-03-07 14:11:00,
2013-03-07 06:22:00,38.0,36.0,29.95,ESE,105,0.0,0.0,91,0.00,,,0.27,,2013-03-07 14:22:00,
2013-03-07 06:32:00,38.0,35.0,29.95,ESE,117,0.0,0.0,90,0.00,,,0.26,,2013-03-07 14:32:00,
2013-03-07 06:42:00,38.0,35.0,29.95,ESE,117,0.0,0.0,90,0.00,,,0.26,,2013-03-07 14:42:00,
2013-03-07 06:52:00,38.0,35.0,29.96,ESE,110,0.0,0.0,90,0.00,,,0.25,,2013-03-07 14:52:00,
2013-03-07 07:02:00,38.0,35.0,29.96,ESE,123,0.0,0.0,90,0.00,,,0.25,,2013-03-07 15:02:00,
2013-03-07 07:11:00,38.0,35.0,29.96,ESE,123,0.0,0.0,90,0.00,,,0.25,,2013-03-07 15:11:00,
2013-03-07 07:22:00,38.0,35.0,29.96,SE,134,0.0,0.0,90,0.00,,,0.25,,2013-03-07 15:22:00,
2013-03-07 07:32:00,38.0,35.0,29.96,SSE,157,0.0,0.0,89,0.00,,,0.24,,2013-03-07 15:32:00,
2013-03-07 07:42:00,38.0,35.0,29.96,SSE,157,0.0,0.0,89,0.00,,,0.24,,2013-03-07 15:42:00,
2013-03-07 07:52:00,38.0,35.0,29.96,ESE,121,0.0,0.0,89,0.00,,,0.24,,2013-03-07 15:52:00,
2013-03-07 08:01:00,39.0,35.0,29.96,SE,129,0.0,0.0,87,0.00,,,0.24,,2013-03-07 16:01:00,
2013-03-07 08:11:00,39.0,35.0,29.96,SE,129,0.0,0.0,87,0.00,,,0.24,,2013-03-07 16:11:00,
2013-03-07 08:32:00,41.0,37.0,29.96,ESE,116,0.0,0.0,84,0.00,,,0.22,,2013-03-07 16:32:00,
2013-03-07 08:53:00,41.0,36.0,29.96,ESE,112,0.0,0.0,82,0.00,,,0.21,,2013-03-07 16:53:00,
2013-03-07 09:01:00,42.0,36.0,29.96,East,101,0.0,0.0,79,0.00,,,0.20,,2013-03-07 17:01:00,
2013-03-07 09:11:00,42.0,36.0,29.96,East,101,0.0,0.0,79,0.00,,,0.20,,2013-03-07 17:11:00,
2013-03-07 09:21:00,43.0,37.0,29.96,ESE,109,0.0,0.0,78,0.00,,,0.20,,2013-03-07 17:21:00,
2013-03-07 09:32:00,45.0,38.0,29.96,SE,134,0.0,0.0,75,0.00,,,0.18,,2013-03-07 17:32:00,
2013-03-07 10:02:00,47.0,37.0,29.96,South,174,0.0,0.0,68,0.00,,,0.17,,2013-03-07 18:02:00,
2013-03-07 10:11:00,47.0,37.0,29.96,South,174,0.0,0.0,68,0.00,,,0.17,,2013-03-07 18:11:00,
2013-03-07 10:21:00,47.0,37.0,29.96,South,174,0.0,0.0,68,0.00,,,0.17,,2013-03-07 18:21:00,
2013-03-07 10:32:00,48.0,34.0,29.96,West,276,0.0,0.0,59,0.00,,,0.15,,2013-03-07 18:32:00,
2013-03-07 10:41:00,48.0,34.0,29.96,West,276,0.0,0.0,59,0.00,,,0.15,,2013-03-07 18:41:00,
2013-03-07 10:52:00,49.0,38.0,29.96,WSW,252,0.0,0.0,65,0.00,,,0.14,,2013-03-07 18:52:00,
2013-03-07 11:02:00,49.0,38.0,29.96,WSW,252,0.0,0.0,65,0.00,,,0.14,,2013-03-07 19:02:00,
2013-03-07 11:11:00,49.0,38.0,29.96,WSW,252,0.0,0.0,65,0.00,,,0.14,,2013-03-07 19:11:00,
2013-03-07 11:22:00,49.0,37.0,29.96,WNW,292,0.0,0.0,64,0.00,,,0.12,,2013-03-07 19:22:00,
2013-03-07 11:33:00,49.0,36.0,29.96,WNW,288,0.0,0.0,61,0.00,,,0.09,,2013-03-07 19:33:00,
2013-03-07 11:43:00,49.0,36.0,29.96,WNW,288,0.0,0.0,61,0.00,,,0.09,,2013-03-07 19:43:00,
2013-03-07 11:52:00,50.0,36.0,29.96,NW,314,0.0,0.0,58,0.00,,,0.08,,2013-03-07 19:52:00,
2013-03-07 12:01:00,50.0,34.0,29.96,WNW,288,0.0,0.0,54,0.00,,,0.06,,2013-03-07 20:01:00,
2013-03-07 12:12:00,50.0,34.0,29.96,WNW,288,0.0,0.0,54,0.00,,,0.06,,2013-03-07 20:12:00,
2013-03-07 12:21:00,51.0,35.0,29.96,WNW,302,0.0,0.0,55,0.00,,,0.05,,2013-03-07 20:21:00,
2013-03-07 12:32:00,51.0,35.0,29.96,WNW,302,0.0,0.0,55,0.00,,,0.05,,2013-03-07 20:32:00,
2013-03-07 12:52:00,52.0,35.0,29.95,WNW,285,0.0,0.0,52,0.00,,,0.03,,2013-03-07 20:52:00,
2013-03-07 13:02:00,52.0,35.0,29.95,WNW,285,0.0,0.0,52,0.00,,,0.03,,2013-03-07 21:02:00,
2013-03-07 13:11:00,52.0,35.0,29.95,WNW,285,0.0,0.0,52,0.00,,,0.03,,2013-03-07 21:11:00,
2013-03-07 13:21:00,53.0,35.0,29.94,NNW,336,0.0,0.0,50,0.00,,,0.02,,2013-03-07 21:21:00,
2013-03-07 13:32:00,53.0,34.0,29.94,North,358,0.0,0.0,48,0.00,,,0.01,,2013-03-07 21:32:00,
2013-03-07 13:42:00,53.0,34.0,29.94,North,358,0.0,0.0,48,0.00,,,0.01,,2013-03-07 21:42:00,
2013-03-07 13:52:00,54.0,35.0,29.93,NW,326,0.0,0.0,49,0.00,,,0.01,,2013-03-07 21:52:00,
2013-03-07 14:01:00,54.0,35.0,29.93,NNE,21,0.0,0.0,49,0.00,,,0.01,,2013-03-07 22:01:00,
2013-03-07 14:11:00,54.0,35.0,29.93,NNE,21,0.0,0.0,49,0.00,,,0.01,,2013-03-07 22:11:00,
2013-03-07 14:21:00,54.0,35.0,29.93,NNE,21,0.0,0.0,49,0.00,,,0.01,,2013-03-07 22:21:00,
2013-03-07 14:32:00,55.0,38.0,29.93,NE,36,0.0,0.0,52,0.00,,,0.01,,2013-03-07 22:32:00,
2013-03-07 14:43:00,55.0,38.0,29.93,NE,36,0.0,0.0,52,0.00,,,0.01,,2013-03-07 22:43:00,
2013-03-07 14:54:00,54.0,36.0,29.92,North,0,0.0,0.0,51,0.00,,,0.01,,2013-03-07 22:54:00,
2013-03-07 15:12:00,54.0,36.0,29.92,NNE,13,0.0,0.0,50,0.00,,,0.01,,2013-03-07 23:12:00,
2013-03-07 15:21:00,54.0,36.0,29.92,NNE,13,0.0,0.0,50,0.00,,,0.01,,2013-03-07 23:21:00,
2013-03-07 15:32:00,54.0,35.0,29.91,NNE,27,0.0,0.0,49,0.00,,,0.01,,2013-03-07 23:32:00,
2013-03-07 15:42:00,54.0,35.0,29.91,NNE,27,0.0,0.0,49,0.00,,,0.01,,2013-03-07 23:42:00,
2013-03-07 16:02:00,54.0,35.0,29.91,North,5,0.0,0.0,49,0.00,,,0.01,,2013-03-08 00:02:00,
2013-03-07 16:11:00,54.0,35.0,29.91,North,5,0.0,0.0,49,0.00,,,0.01,,2013-03-08 00:11:00,
2013-03-07 16:22:00,53.0,34.0,29.91,North,358,0.0,0.0,49,0.00,,,0.01,,2013-03-08 00:22:00,
2013-03-07 16:32:00,53.0,35.0,29.91,North,10,0.0,0.0,50,0.00,,,0.01,,2013-03-08 00:32:00,
2013-03-07 16:43:00,53.0,35.0,29.91,North,10,0.0,0.0,50,0.00,,,0.01,,2013-03-08 00:43:00,
2013-03-07 16:52:00,53.0,34.0,29.91,North,0,0.0,0.0,49,0.00,,,0.01,,2013-03-08 00:52:00,
2013-03-07 17:01:00,53.0,35.0,29.91,NNE,13,0.0,0.0,50,0.00,,,0.01,,2013-03-08 01:01:00,
2013-03-07 17:11:00,53.0,35.0,29.91,NNE,13,0.0,0.0,50,0.00,,,0.01,,2013-03-08 01:11:00,
2013-03-07 17:21:00,53.0,35.0,29.91,North,0,0.0,0.0,50,0.00,,,0.01,,2013-03-08 01:21:00,
2013-03-07 17:32:00,53.0,35.0,29.91,North,351,0.0,0.0,51,0.00,,,0.01,,2013-03-08 01:32:00,
2013-03-07 17:42:00,53.0,35.0,29.91,North,351,0.0,0.0,51,0.00,,,0.01,,2013-03-08 01:42:00,
2013-03-07 17:51:00,52.0,34.0,29.92,North,1,0.0,0.0,51,0.00,,,0.00,,2013-03-08 01:51:00,
2013-03-07 18:01:00,51.0,34.0,29.92,North,1,0.0,0.0,52,0.00,,,0.00,,2013-03-08 02:01:00,
2013-03-07 18:11:00,51.0,34.0,29.93,North,7,0.0,0.0,53,0.00,,,0.00,,2013-03-08 02:11:00,
2013-03-07 18:21:00,51.0,34.0,29.93,North,7,0.0,0.0,53,0.00,,,0.00,,2013-03-08 02:21:00,
2013-03-07 18:31:00,51.0,36.0,29.94,ESE,108,0.0,0.0,56,0.00,,,0.00,,2013-03-08 02:31:00,
2013-03-07 18:41:00,51.0,36.0,29.94,ESE,108,0.0,0.0,56,0.00,,,0.00,,2013-03-08 02:41:00,
2013-03-07 18:52:00,49.0,35.0,29.94,East,80,0.0,0.0,59,0.00,,,0.00,,2013-03-08 02:52:00,
2013-03-07 19:01:00,47.0,36.0,29.94,East,101,0.0,0.0,66,0.00,,,0.00,,2013-03-08 03:01:00,
2013-03-07 19:11:00,47.0,36.0,29.94,East,101,0.0,0.0,66,0.00,,,0.00,,2013-03-08 03:11:00,
2013-03-07 19:22:00,47.0,36.0,29.95,SE,136,0.0,0.0,66,0.00,,,0.00,,2013-03-08 03:22:00,
2013-03-07 19:32:00,46.0,36.0,29.95,ESE,123,0.0,0.0,68,0.00,,,0.00,,2013-03-08 03:32:00,
2013-03-07 19:41:00,46.0,36.0,29.95,ESE,123,0.0,0.0,68,0.00,,,0.00,,2013-03-08 03:41:00,
2013-03-07 19:52:00,46.0,36.0,29.95,ESE,123,0.0,0.0,68,0.00,,,0.00,,2013-03-08 03:52:00,
2013-03-07 20:01:00,46.0,36.0,29.95,SSE,166,0.0,0.0,68,0.00,,,0.00,,2013-03-08 04:01:00,
2013-03-07 20:11:00,46.0,36.0,29.95,SSE,166,0.0,0.0,68,0.00,,,0.00,,2013-03-08 04:11:00,
2013-03-07 20:21:00,46.0,36.0,29.95,SE,143,0.0,0.0,68,0.00,,,0.00,,2013-03-08 04:21:00,
2013-03-07 20:31:00,45.0,36.0,29.96,East,94,0.0,0.0,70,0.00,,,0.00,,2013-03-08 04:31:00,
2013-03-07 20:42:00,45.0,36.0,29.96,East,94,0.0,0.0,70,0.00,,,0.00,,2013-03-08 04:42:00,
2013-03-07 20:52:00,45.0,37.0,29.95,ESE,106,0.0,0.0,72,0.00,,,0.00,,2013-03-08 04:52:00,
2013-03-07 21:01:00,45.0,38.0,29.95,SE,139,0.0,0.0,75,0.00,,,0.00,,2013-03-08 05:01:00,
2013-03-07 21:12:00,45.0,38.0,29.95,SE,139,0.0,0.0,75,0.00,,,0.00,,2013-03-08 05:12:00,
2013-03-07 21:22:00,44.0,37.0,29.95,ESE,118,0.0,0.0,76,0.00,,,0.00,,2013-03-08 05:22:00,
2013-03-07 21:32:00,44.0,37.0,29.94,SSE,149,0.0,0.0,77,0.00,,,0.00,,2013-03-08 05:32:00,
2013-03-07 21:42:00,44.0,37.0,29.94,SSE,149,0.0,0.0,77,0.00,,,0.00,,2013-03-08 05:42:00,
2013-03-07 21:52:00,44.0,37.0,29.95,SSE,149,0.0,0.0,77,0.00,,,0.00,,2013-03-08 05:52:00,
2013-03-07 22:01:00,43.0,37.0,29.94,SE,130,0.0,0.0,79,0.00,,,0.00,,2013-03-08 06:01:00,
2013-03-07 22:11:00,43.0,37.0,29.94,SE,130,0.0,0.0,79,0.00,,,0.00,,2013-03-08 06:11:00,
2013-03-07 22:21:00,43.0,37.0,29.94,SE,130,0.0,0.0,79,0.00,,,0.00,,2013-03-08 06:21:00,
2013-03-07 22:32:00,43.0,38.0,29.95,SE,141,0.0,0.0,81,0.00,,,0.00,,2013-03-08 06:32:00,
2013-03-07 22:41:00,43.0,38.0,29.95,SE,141,0.0,0.0,81,0.00,,,0.00,,2013-03-08 06:41:00,
2013-03-07 22:52:00,42.0,37.0,29.94,SE,127,0.0,0.0,81,0.00,,,0.00,,2013-03-08 06:52:00,
2013-03-07 23:01:00,42.0,37.0,29.94,SE,132,0.0,0.0,81,0.00,,,0.00,,2013-03-08 07:01:00,
2013-03-07 23:11:00,42.0,37.0,29.94,SE,132,0.0,0.0,81,0.00,,,0.00,,2013-03-08 07:11:00,
2013-03-07 23:21:00,42.0,37.0,29.94,SE,137,0.0,0.0,81,0.00,,,0.00,,2013-03-08 07:21:00,
2013-03-07 23:31:00,42.0,37.0,29.94,East,79,0.0,0.0,81,0.00,,,0.00,,2013-03-08 07:31:00,
2013-03-07 23:41:00,42.0,37.0,29.94,East,79,0.0,0.0,81,0.00,,,0.00,,2013-03-08 07:41:00,
2013-03-07 23:51:00,43.0,37.0,29.93,East,96,0.0,0.0,80,0.00,,,0.00,,2013-03-08 07:51:00,